Latest Coastal Weather Observations for Melbourne (Olympic Park)

IDV60701

Issued at 2:31 pm EDT Saturday 16 December 2017 (issued every 10 minutes, with the page automatically refreshed every 10 minutes)

About coastal observations | Map of coastal stations | Coastal observations for VIC | Marine services | Other Formats
Station Details ID: 086338 Name: MELBOURNE (OLYMPIC PARK) Lat: -37.83 Lon: 144.98 Height: 7.53 m
Data from the previous 72 hours. | See also: Recent months at Melbourne (Olympic Park)
Date/Time
EDT
Temp
°C
Wind Pressure Rain since
9am
mm
Weather Cloud Vis
km
Sea
Height
m
Swell
Dir  Spd
kts
Gust
kts
hPa Trend Height
m
Period
s
Dir
16/02:30pm 23.2 SSW 7 13 1014.9 - 0.0 - - 10 - - - -
16/02:00pm 22.8 SSW 7 11 1014.8 - 0.0 - - 10 - - - -
16/01:30pm 22.4 S 6 11 1015.0 - 0.0 - - 10 - - - -
16/01:00pm 22.0 SSW 7 11 1015.1 - 0.0 - - 10 - - - -
16/12:30pm 21.6 SSW 7 11 1015.2 - 0.0 - - 10 - - - -
16/12:00pm 20.4 SSW 8 11 1015.4 - 0.0 - - 10 - - - -
16/11:30am 20.7 SSW 6 11 1015.2 - 0.0 - - 10 - - - -
16/11:00am 20.6 S 5 9 1015.2 - 0.0 - - 10 - - - -
16/10:30am 20.2 SSW 5 9 1015.1 - 0.0 - - 10 - - - -
16/10:00am 19.6 S 6 11 1015.1 - 0.0 - - 10 - - - -
16/09:30am 19.4 S 5 8 1015.0 - 0.0 - - 10 - - - -
16/09:00am 18.7 SSW 4 6 1014.9 - 0.0 - - 10 - - - -
16/08:30am 19.1 SSE 3 5 1014.6 - 0.0 - - 10 - - - -
16/08:00am 18.8 SW 1 4 1014.4 - 0.0 - - 10 - - - -
16/07:30am 17.4 SSW 1 4 1014.1 - 0.0 - - 10 - - - -
16/07:00am 16.5 SSW 1 4 1013.7 - 0.0 - - 10 - - - -
16/06:30am 15.0 CALM 0 1 1013.1 - 0.0 - - 10 - - - -
16/06:00am 13.9 CALM 0 0 1012.9 - 0.0 - - 10 - - - -
16/05:30am 14.0 CALM 0 0 1012.7 - 0.0 - - 10 - - - -
16/05:00am 14.4 CALM 0 0 1012.6 - 0.0 - - 10 - - - -
16/04:30am 14.5 SE 2 4 1012.1 - 0.0 - - 10 - - - -
16/04:00am 14.9 CALM 0 0 1012.4 - 0.0 - - 10 - - - -
16/03:30am 15.3 CALM 0 0 1012.5 - 0.0 - - 10 - - - -
16/03:21am 15.4 CALM 0 0 1012.5 - 0.0 - - 10 - - - -
16/03:01am 15.9 CALM 0 0 1012.5 - 0.0 - - 5 - - - -
16/03:00am 15.9 CALM 0 0 1012.5 - 0.0 - - 8 - - - -
16/02:30am 16.3 S 1 3 1012.7 - 0.0 - - 10 - - - -
16/02:00am 16.8 S 1 6 1012.7 - 0.0 - - 10 - - - -
16/01:30am 16.4 CALM 0 0 1012.8 - 0.0 - - 10 - - - -
16/01:00am 17.3 SSE 1 3 1012.8 - 0.0 - - 10 - - - -
16/12:30am 17.8 S 3 6 1012.8 - 0.0 - - 10 - - - -
16/12:00am 18.0 S 4 8 1012.8 - 0.0 - - 10 - - - -
 
Date/Time
EDT
Temp
°C
Wind Pressure Rain since
9am
mm
Weather Cloud Vis
km
Sea
Height
m
Swell
Dir  Spd
kts
Gust
kts
hPa Trend Height
m
Period
s
Dir
15/11:30pm 18.1 S 6 10 1012.8 - 0.0 - - 10 - - - -
15/11:00pm 18.4 S 5 9 1012.6 - 0.0 - - 10 - - - -
15/10:30pm 18.9 S 6 13 1012.2 - 0.0 - - 10 - - - -
15/10:00pm 19.3 S 4 9 1011.9 - 0.0 - - 10 - - - -
15/09:30pm 19.9 SSE 5 8 1011.5 - 0.0 - - 10 - - - -
15/09:00pm 20.5 S 4 8 1011.1 - 0.0 - - 10 - - - -
15/08:30pm 21.0 S 7 13 1010.8 - 0.0 - - 10 - - - -
15/08:00pm 22.0 SE 8 13 1010.1 - 0.0 - - 10 - - - -
15/07:30pm 23.5 SSE 7 12 1009.6 - 0.0 - - 10 - - - -
15/07:00pm 24.3 SSE 7 14 1009.1 - 0.0 - - 10 - - - -
15/06:30pm 24.8 SSW 6 12 1008.8 - 0.0 - - 10 - - - -
15/06:00pm 25.1 S 5 12 1008.7 - 0.0 - - 10 - - - -
15/05:30pm 25.6 SSW 5 8 1008.6 - 0.0 - - 10 - - - -
15/05:00pm 23.6 SSW 8 14 1008.9 - 0.0 - - 10 - - - -
15/04:30pm 24.4 SSW 7 11 1008.9 - 0.0 - - 10 - - - -
15/04:00pm 24.2 SSW 7 11 1009.1 - 0.0 - - 10 - - - -
15/03:30pm 23.8 SSW 7 13 1009.4 - 0.0 - - 10 - - - -
15/03:00pm 23.1 SSW 9 13 1009.7 - 0.0 - - 10 - - - -
15/02:30pm 23.0 SSW 8 12 1010.0 - 0.0 - - 10 - - - -
15/02:00pm 22.7 SW 7 12 1010.4 - 0.0 - - 10 - - - -
15/01:30pm 22.2 SSW 6 11 1010.8 - 0.0 - - 10 - - - -
15/01:00pm 21.4 SSW 7 10 1011.3 - 0.0 - - 10 - - - -
15/12:30pm 21.3 SSW 6 11 1011.6 - 0.0 - - 10 - - - -
15/12:00pm 20.1 S 7 11 1012.0 - 0.0 - - 10 - - - -
15/11:30am 20.9 SW 5 9 1012.2 - 0.0 - - 10 - - - -
15/11:00am 19.8 S 6 10 1012.3 - 0.0 - - 10 - - - -
15/10:30am 19.8 SSW 6 8 1012.5 - 0.0 - - 10 - - - -
15/10:00am 20.0 NE 2 7 1012.7 - 0.0 - - 10 - - - -
15/09:30am 19.0 SE 3 6 1012.9 - 0.0 - - 10 - - - -
15/09:00am 18.4 SSE 5 9 1013.1 - 0.0 - - 10 - - - -
15/08:30am 18.4 SE 4 7 1013.1 - 0.0 - - 10 - - - -
15/08:00am 17.7 ESE 5 8 1012.9 - 0.0 - - 10 - - - -
15/07:30am 17.1 SE 4 7 1012.8 - 0.0 - - 10 - - - -
15/07:00am 16.5 SE 3 6 1012.7 - 0.0 - - 10 - - - -
15/06:30am 14.5 CALM 0 0 1012.5 - 0.0 - - 10 - - - -
15/06:00am 14.3 CALM 0 0 1012.4 - 0.0 - - 10 - - - -
15/05:30am 14.2 CALM 0 0 1012.2 - 0.0 - - 10 - - - -
15/05:00am 14.5 CALM 0 0 1012.1 - 0.0 - - 10 - - - -
15/04:30am 14.9 ESE 1 4 1012.1 - 0.0 - - 10 - - - -
15/04:00am 15.1 E 1 4 1012.1 - 0.0 - - 10 - - - -
15/03:30am 15.3 ESE 3 6 1012.2 - 0.0 - - 10 - - - -
15/03:00am 15.3 SE 1 4 1012.3 - 0.0 - - 10 - - - -
15/02:30am 15.5 SE 2 4 1012.5 - 0.0 - - 10 - - - -
15/02:00am 15.1 SSE 1 4 1012.6 - 0.0 - - 10 - - - -
15/01:30am 15.2 CALM 0 0 1012.8 - 0.0 - - 10 - - - -
15/01:00am 15.5 CALM 0 1 1012.9 - 0.0 - - 10 - - - -
15/12:30am 16.1 SSE 1 4 1013.1 - 0.0 - - 10 - - - -
15/12:00am 16.5 SSE 4 6 1013.3 - 0.0 - - 10 - - - -
 
Date/Time
EDT
Temp
°C
Wind Pressure Rain since
9am
mm
Weather Cloud Vis
km
Sea
Height
m
Swell
Dir  Spd
kts
Gust
kts
hPa Trend Height
m
Period
s
Dir
14/11:30pm 16.9 SSE 5 7 1013.2 - 0.0 - - 10 - - - -
14/11:00pm 17.4 S 4 7 1013.2 - 0.0 - - 10 - - - -
14/10:30pm 17.9 SSE 5 9 1013.0 - 0.0 - - 10 - - - -
14/10:00pm 18.0 SSE 6 11 1012.8 - 0.0 - - 10 - - - -
14/09:30pm 18.1 SSE 6 11 1012.5 - 0.0 - - 10 - - - -
14/09:00pm 18.3 SSE 6 11 1012.1 - 0.0 - - 10 - - - -
14/08:30pm 18.5 S 6 11 1011.7 - 0.0 - - 10 - - - -
14/08:00pm 19.0 S 7 15 1011.2 - 0.0 - - 10 - - - -
14/07:30pm 19.8 SSW 7 12 1010.8 - 0.0 - - 10 - - - -
14/07:00pm 19.5 S 9 16 1010.3 - 0.0 - - 10 - - - -
14/06:30pm 20.2 SSE 8 15 1009.9 - 0.0 - - 10 - - - -
14/06:00pm 20.9 S 9 18 1009.7 - 0.0 - - 10 - - - -
14/05:30pm 20.5 S 9 16 1009.2 - 0.0 - - 10 - - - -
14/05:00pm 20.8 S 9 17 1009.1 - 0.0 - - 10 - - - -
14/04:30pm 20.6 S 10 17 1008.9 - 0.0 - - 10 - - - -
14/04:00pm 20.6 S 9 15 1008.6 - 0.0 - - 10 - - - -
14/03:30pm 21.4 SSW 9 15 1008.3 - 0.0 - - 10 - - - -
14/03:00pm 21.5 SSW 7 13 1008.1 - 0.0 - - 10 - - - -
14/02:30pm 22.8 SSW 6 12 1008.0 - 0.0 - - 10 - - - -
14/02:00pm 22.5 SSW 7 12 1008.0 - 0.0 - - 10 - - - -
14/01:30pm 22.5 S 7 11 1008.0 - 0.0 - - 10 - - - -
14/01:00pm 22.1 SSW 9 21 1008.1 - 0.0 - - 10 - - - -
14/12:30pm 21.7 SSW 9 14 1007.8 - 0.0 - - 10 - - - -
14/12:00pm 21.5 S 7 12 1007.6 - 0.0 - - 10 - - - -
14/11:30am 21.0 S 9 17 1007.6 - 0.0 - - 10 - - - -
14/11:00am 21.2 S 10 18 1007.2 - 0.0 - - 10 - - - -
14/10:30am 22.1 SW 7 12 1006.9 - 0.0 - - 10 - - - -
14/10:00am 21.2 S 8 14 1006.8 - 0.0 - - 10 - - - -
14/09:30am 20.9 S 7 13 1006.4 - 0.0 - - 10 - - - -
14/09:00am 21.1 S 7 11 1006.0 - 0.0 - - 10 - - - -
14/08:30am 21.0 SW 5 11 1005.5 - 0.0 - - 10 - - - -
14/08:00am 21.2 SW 5 12 1005.0 - 0.0 - - 10 - - - -
14/07:30am 21.6 SW 6 13 1004.2 - 0.0 - - 10 - - - -
14/07:00am 22.7 WSW 7 13 1003.2 - 0.0 - - 10 - - - -
14/06:30am 23.4 SSW 4 7 1002.4 - 0.0 - - 10 - - - -
14/06:00am 23.1 S 1 3 1001.8 - 0.0 - - 10 - - - -
14/05:30am 23.6 CALM 0 1 1001.6 - 0.0 - - 10 - - - -
14/05:00am 24.5 NNE 6 8 1001.0 - 0.0 - - 10 - - - -
14/04:30am 24.6 N 4 6 1002.5 - 0.0 - - 10 - - - -
14/04:00am 25.3 NNE 5 9 1001.9 - 0.0 - - 10 - - - -
14/03:30am 25.4 NNE 4 6 1002.1 - 0.0 - - 10 - - - -
14/03:05am 25.9 NNE 5 8 1002.2 - 0.0 - - 10 - - - -
14/03:00am 25.9 NE 6 8 1002.4 - 0.0 - - 10 - - - -
14/02:47am 24.9 CALM 0 3 1003.3 - 0.0 - - 6 - - - -
14/02:30am 25.6 NW 2 4 1003.7 - 0.0 - - 10 - - - -
14/02:00am 25.9 W 1 5 1003.4 - 0.0 - - 10 - - - -
14/01:30am 26.0 CALM 0 1 1003.6 - 0.0 - - 10 - - - -
14/01:00am 26.8 W 2 6 1004.2 - 0.0 - - 10 - - - -
14/12:30am 26.9 WSW 1 4 1004.3 - 0.0 - - 10 - - - -
14/12:00am 27.3 WNW 3 5 1004.4 - 0.0 - - 10 - - - -
 
Date/Time
EDT
Temp
°C
Wind Pressure Rain since
9am
mm
Weather Cloud Vis
km
Sea
Height
m
Swell
Dir  Spd
kts
Gust
kts
hPa Trend Height
m
Period
s
Dir
13/11:30pm 28.1 W 4 9 1004.1 - 0.0 - - 10 - - - -
13/11:00pm 28.8 W 5 11 1004.1 - 0.0 - - 10 - - - -
13/10:30pm 29.3 WSW 7 17 1003.7 - 0.0 - - 10 - - - -
13/10:00pm 30.6 WSW 5 15 1003.2 - 0.0 - - 10 - - - -
13/09:30pm 33.3 WNW 6 13 1002.0 - 0.0 - - 10 - - - -
13/09:00pm 33.1 N 5 8 1000.6 - 0.0 - - 10 - - - -
13/08:30pm 34.4 N 6 9 1000.7 - 0.0 - - 10 - - - -
13/08:00pm 35.8 N 7 11 1000.8 - 0.0 - - 10 - - - -
13/07:30pm 36.6 N 11 16 1001.0 - 0.0 - - 10 - - - -
13/07:00pm 37.0 N 11 17 1001.2 - 0.0 - - 10 - - - -
13/06:30pm 36.9 N 11 17 1001.4 - 0.0 - - 10 - - - -
13/06:00pm 36.9 N 7 16 1001.6 - 0.0 - - 10 - - - -
13/05:30pm 37.0 N 13 24 1002.0 - 0.0 - - 10 - - - -
13/05:00pm 37.1 N 11 19 1002.5 - 0.0 - - 10 - - - -
13/04:30pm 36.9 N 12 20 1003.0 - 0.0 - - 10 - - - -
13/04:00pm 36.7 N 12 22 1003.4 - 0.0 - - 10 - - - -
13/03:30pm 36.8 NNW 11 19 1003.9 - 0.0 - - 10 - - - -
13/03:00pm 36.0 NNW 14 23 1004.5 - 0.0 - - 10 - - - -

Other Formats:

Comma delimited format used in spreadsheet applications
http://www.bom.gov.au/fwo/IDV60701/IDV60701.95936.axf

JavaScript Object Notation format (JSON) in row-major order
http://www.bom.gov.au/fwo/IDV60701/IDV60701.95936.json